createdAt,value
2023-05-19T04:46:24.309Z,5.00
2023-05-19T04:51:29.223Z,4.93
2023-05-19T04:56:33.284Z,7.10
2023-05-19T05:01:40.269Z,4.53
2023-05-19T05:06:47.740Z,7.07
2023-05-19T05:11:51.565Z,4.73
2023-05-19T05:16:54.702Z,6.37
2023-05-19T05:21:57.768Z,6.17
2023-05-19T05:27:01.375Z,8.40
2023-05-19T05:32:04.282Z,9.57
2023-05-19T05:37:07.150Z,6.03
2023-05-19T05:42:10.662Z,9.37
2023-05-19T05:47:14.073Z,7.67
2023-05-19T05:52:18.895Z,6.53
2023-05-19T05:57:21.974Z,8.97
2023-05-19T06:02:24.985Z,6.93
2023-05-19T06:07:27.952Z,6.97
2023-05-19T06:12:30.686Z,7.90
2023-05-19T06:17:35.718Z,7.37
2023-05-19T06:22:38.484Z,6.20
2023-05-19T06:27:41.479Z,9.90
2023-05-19T06:32:44.329Z,7.30
2023-05-19T06:37:47.078Z,6.27
2023-05-19T06:42:49.804Z,8.23
2023-05-19T06:47:54.095Z,7.87
2023-05-19T06:52:58.322Z,7.70
2023-05-19T06:58:02.169Z,6.90
2023-05-19T07:03:05.048Z,6.77
2023-05-19T07:08:08.374Z,8.00
2023-05-19T07:13:11.158Z,4.93
2023-05-19T07:18:13.910Z,6.67
2023-05-19T07:23:17.477Z,6.77
2023-05-19T07:28:20.328Z,5.13
2023-05-19T07:33:23.102Z,6.10
2023-05-19T07:38:25.914Z,5.87
2023-05-19T07:43:28.704Z,6.83
2023-05-19T07:48:31.425Z,8.60
2023-05-19T07:53:34.247Z,6.63
2023-05-19T07:58:36.977Z,7.33
2023-05-19T08:03:40.034Z,6.90
2023-05-19T08:08:42.844Z,5.50
2023-05-19T08:13:48.598Z,8.00
2023-05-19T08:18:51.759Z,8.40
2023-05-19T08:23:54.510Z,4.67
2023-05-19T08:28:57.399Z,6.97
2023-05-19T08:34:00.142Z,6.60
2023-05-19T08:39:03.267Z,10.10
2023-05-19T08:44:06.142Z,6.70
2023-05-19T08:49:16.780Z,6.83
2023-05-19T08:54:20.790Z,6.10
2023-05-19T08:59:23.595Z,6.73
2023-05-19T09:04:30.001Z,6.70
2023-05-19T09:09:33.286Z,8.13
2023-05-19T09:14:36.294Z,6.53
2023-05-19T09:19:44.515Z,6.73
2023-05-19T09:24:48.325Z,6.53
2023-05-19T09:29:51.293Z,6.50
2023-05-19T09:34:55.133Z,6.47
2023-05-19T09:39:57.917Z,6.60
2023-05-19T09:45:03.452Z,6.30
2023-05-19T09:50:08.525Z,4.83
2023-05-19T09:55:12.989Z,6.50
2023-05-19T10:00:18.010Z,12.77
2023-05-19T10:05:21.491Z,5.73
2023-05-19T10:10:24.500Z,5.67
2023-05-19T10:15:27.454Z,6.50
2023-05-19T10:20:30.300Z,6.40
2023-05-19T10:25:34.433Z,5.33
2023-05-19T10:30:40.024Z,6.40
2023-05-19T10:35:51.898Z,11.63
2023-05-19T10:41:08.973Z,7.30
2023-05-19T10:46:11.831Z,7.13
2023-05-19T10:51:15.683Z,6.10
2023-05-19T10:56:34.084Z,6.00
2023-05-19T11:01:38.846Z,9.60
2023-05-19T11:06:41.815Z,7.47
2023-05-19T11:11:54.739Z,9.10
2023-05-19T11:16:59.249Z,5.87
2023-05-19T11:22:12.757Z,5.40
2023-05-19T11:27:35.642Z,7.63
2023-05-19T11:32:44.397Z,7.37
2023-05-19T11:37:47.728Z,6.50
2023-05-19T11:42:50.412Z,7.90
2023-05-19T11:53:02.850Z,7.53
2023-05-19T11:58:06.266Z,5.43
2023-05-19T12:03:10.070Z,6.17
2023-05-19T12:08:13.197Z,7.73
2023-05-19T12:13:16.171Z,4.73
2023-05-19T12:18:19.242Z,7.33
2023-05-19T12:23:21.999Z,5.57
2023-05-19T12:28:24.716Z,5.67
2023-05-19T12:33:27.411Z,7.20
2023-05-19T12:38:30.188Z,6.90
2023-05-19T12:43:35.585Z,6.20
2023-05-19T12:48:45.549Z,7.10
2023-05-19T12:53:49.893Z,6.47
2023-05-19T12:58:54.869Z,6.07
2023-05-19T13:03:57.946Z,5.67
2023-05-19T13:09:00.781Z,6.10
2023-05-19T13:14:03.654Z,7.17
2023-05-19T13:19:06.609Z,6.07
2023-05-19T13:24:09.531Z,7.70
2023-05-19T13:29:12.269Z,5.00
2023-05-19T13:34:15.106Z,5.87
2023-05-19T13:39:17.969Z,6.17
2023-05-19T13:44:20.689Z,7.97
2023-05-19T13:49:23.487Z,6.77
2023-05-19T13:54:26.256Z,7.47
2023-05-19T13:59:29.664Z,6.33
2023-05-19T14:04:32.663Z,10.87
2023-05-19T14:09:35.426Z,9.07
2023-05-19T14:14:38.414Z,10.90
2023-05-19T14:19:41.151Z,6.40
2023-05-19T14:24:43.933Z,7.77
2023-05-19T14:29:46.684Z,10.33
2023-05-19T14:34:52.831Z,7.97
2023-05-19T14:39:55.831Z,13.53
2023-05-19T14:44:58.605Z,12.60
2023-05-19T14:50:01.383Z,12.90
2023-05-19T14:55:04.312Z,12.13
2023-05-19T15:00:10.237Z,14.50
2023-05-19T15:05:13.034Z,18.07
2023-05-19T15:10:16.556Z,13.37
2023-05-19T15:15:19.334Z,16.47
2023-05-19T15:20:22.056Z,13.07
2023-05-19T15:25:24.814Z,14.80
2023-05-19T15:30:27.609Z,13.17
2023-05-19T15:35:30.324Z,12.23
2023-05-19T15:40:34.038Z,16.27
2023-05-19T15:45:37.158Z,12.47
2023-05-19T15:50:39.912Z,11.83
2023-05-19T15:55:42.643Z,15.63
2023-05-19T16:00:45.372Z,19.17
2023-05-19T16:05:48.204Z,17.57
2023-05-19T16:10:50.950Z,16.83
2023-05-19T16:15:53.810Z,21.60
2023-05-19T16:20:56.758Z,21.83
2023-05-19T16:25:59.559Z,18.83
2023-05-19T16:31:02.391Z,18.77
2023-05-19T16:36:06.505Z,18.63
2023-05-19T16:41:12.305Z,17.70
2023-05-19T16:46:15.206Z,22.20
2023-05-19T16:51:18.069Z,18.07
2023-05-19T16:56:21.836Z,10.73
2023-05-19T17:01:24.618Z,11.57
2023-05-19T17:06:27.426Z,13.13
2023-05-19T17:11:30.134Z,14.43
2023-05-19T17:16:33.437Z,13.80
2023-05-19T17:21:36.347Z,12.67
2023-05-19T17:26:39.140Z,10.73
2023-05-19T17:31:42.259Z,10.83
2023-05-19T17:36:45.072Z,9.87
2023-05-19T17:41:47.804Z,10.87
2023-05-19T17:46:51.145Z,15.67
2023-05-19T17:51:54.128Z,12.63
2023-05-19T17:56:58.993Z,11.30
2023-05-19T18:02:02.020Z,9.77
2023-05-19T18:07:06.114Z,12.63
2023-05-19T18:12:08.845Z,12.50
2023-05-19T18:17:11.974Z,9.60
2023-05-19T18:22:14.936Z,10.57
2023-05-19T18:27:17.696Z,9.40
2023-05-19T18:32:20.834Z,10.93
2023-05-19T18:37:23.589Z,8.93
2023-05-19T18:42:26.350Z,11.60
2023-05-19T18:47:29.141Z,10.07
2023-05-19T18:52:31.894Z,9.97
2023-05-19T18:57:34.656Z,8.20
2023-05-19T19:02:37.453Z,10.37
2023-05-19T19:07:41.757Z,10.20
2023-05-19T19:12:44.575Z,12.13
2023-05-19T19:17:47.439Z,10.13
2023-05-19T19:22:51.273Z,11.97
2023-05-19T19:27:54.700Z,13.83
2023-05-19T19:32:57.653Z,13.33
2023-05-19T19:38:00.638Z,12.27
2023-05-19T19:43:03.401Z,12.87
2023-05-19T19:48:09.759Z,12.73
2023-05-19T19:53:12.919Z,13.23
2023-05-19T19:58:15.757Z,13.67
2023-05-19T20:03:18.533Z,12.40
2023-05-19T20:08:21.720Z,15.07
2023-05-19T20:13:24.484Z,11.10
2023-05-19T20:18:29.635Z,12.80
2023-05-19T20:23:32.503Z,10.07
2023-05-19T20:28:35.820Z,13.27
2023-05-19T20:33:38.666Z,10.83
2023-05-19T20:38:41.679Z,10.93
2023-05-19T20:43:44.419Z,11.87
2023-05-19T20:48:47.214Z,11.03
2023-05-19T20:53:49.920Z,10.77
2023-05-19T20:58:52.645Z,9.87
2023-05-19T21:03:55.347Z,12.10
2023-05-19T21:08:58.111Z,12.93
2023-05-19T21:14:04.209Z,15.47
2023-05-19T21:19:07.544Z,10.50
2023-05-19T21:24:12.703Z,10.77
2023-05-19T21:29:15.493Z,15.23
2023-05-19T21:34:18.202Z,14.63
2023-05-19T21:39:21.123Z,12.30
2023-05-19T21:44:25.116Z,14.43
2023-05-19T21:49:27.868Z,14.60
2023-05-19T21:54:30.682Z,15.00
2023-05-19T21:59:33.402Z,16.93
2023-05-19T22:04:37.076Z,17.53
2023-05-19T22:09:39.873Z,14.97
2023-05-19T22:14:42.617Z,16.27
2023-05-19T22:19:45.779Z,20.40
2023-05-19T22:24:48.753Z,17.27
2023-05-19T22:29:51.566Z,14.83
2023-05-19T22:34:54.437Z,11.60
2023-05-19T22:39:57.201Z,12.17
2023-05-19T22:45:00.108Z,13.17
2023-05-19T22:50:02.969Z,23.53
2023-05-19T22:55:06.443Z,15.60
2023-05-19T23:00:09.850Z,15.27
2023-05-19T23:05:12.642Z,14.90
2023-05-19T23:10:15.458Z,19.07
2023-05-19T23:15:18.274Z,13.43
2023-05-19T23:20:21.228Z,17.33
2023-05-19T23:25:23.940Z,14.13
2023-05-19T23:30:28.543Z,12.90
2023-05-19T23:35:31.286Z,16.20
2023-05-19T23:40:34.024Z,13.17
2023-05-19T23:45:36.828Z,13.63
